Pride Of Kent — MQCJ2 — position and weather

sailwx.info

Track history (hours):
 
Tides and Currents Weather Stations Pressure Air Temp Water Temp Dewpoint Dewpoint Depression Visibility Wind Speed Wind Dir Waves Ship Positions

Pride Of Kent

Operator: P & O Ferries

Last reported at 2017-Oct-17 06:00 UTC. Time now 2017-Oct-17 06:08 UTC.
Position N 51°07' E 001°26'.

Length 180 m; draft 6 m.

Type: Passenger vessel. MMSI: 232009000.

Date/timePositionNaut miles runAvg speedWind from/ knotsBaromVisibWave heightAir tempDewpointWater temp
2017-Oct-17 06:00N 51°07' E 001°26'816.1
2017-Oct-17 05:30N 51°01' E 001°35'815.5
2017-Oct-17 05:00N 50°58' E 001°46'3 5.7
2017-Oct-17 04:30N 50°58' E 001°51'0 0.0
2017-Oct-17 04:00N 50°58' E 001°51'2 3.5
2017-Oct-17 03:31N 50°58' E 001°48'815.4
2017-Oct-17 03:01N 51°00' E 001°37'917.0
2017-Oct-17 02:31N 51°05' E 001°26'4 6.5
2017-Oct-17 01:53N 51°07' E 001°20'0 0.0
2017-Oct-17 01:29N 51°07' E 001°20'0 0.0
2017-Oct-17 01:00N 51°07' E 001°20'511.2
2017-Oct-17 00:31N 51°07' E 001°29'815.8
2017-Oct-17 00:01N 51°01' E 001°38'714.4
2017-Oct-16 23:30N 50°58' E 001°48'2 3.3
2017-Oct-16 23:00N 50°58' E 001°51'0 0.0
2017-Oct-16 22:27N 50°58' E 001°51'715.3
2017-Oct-16 22:00N 50°58' E 001°40'918.4
2017-Oct-16 21:30N 51°03' E 001°28'6 8.2
2017-Oct-16 20:43N 51°07' E 001°20'0 0.0
2017-Oct-16 20:17N 51°07' E 001°20'0 0.7
2017-Oct-16 19:59N 51°07' E 001°20'715.3
2017-Oct-16 19:30N 51°04' E 001°31'917.7
2017-Oct-16 19:00N 50°59' E 001°42'611.1
2017-Oct-16 18:30N 50°58' E 001°51'0 0.0
2017-Oct-16 18:00N 50°58' E 001°51'612.7
2017-Oct-16 17:31N 50°58' E 001°41'918.1
2017-Oct-16 17:00N 51°03' E 001°29'7 5.7
2017-Oct-16 15:45N 51°07' E 001°20'1 4.5
2017-Oct-16 15:30N 51°07' E 001°22'918.3
2017-Oct-16 15:00N 51°03' E 001°35'918.2
2017-Oct-16 14:31N 50°58' E 001°47'2 2.5
2017-Oct-16 13:30N 50°58' E 001°51'816.4
2017-Oct-16 13:00N 50°58' E 001°38'816.6
2017-Oct-16 12:30N 51°04' E 001°28'6 8.4
2017-Oct-16 11:45N 51°07' E 001°20'0 0.0
2017-Oct-16 11:30N 51°07' E 001°20'0 0.6
2017-Oct-16 11:00N 51°07' E 001°20'816.4
2017-Oct-16 10:30N 51°05' E 001°33'917.7
2017-Oct-16 10:00N 50°59' E 001°43'510.2
2017-Oct-16 09:30N 50°58' E 001°51'0 0.0
2017-Oct-16 09:00N 50°58' E 001°51'2 4.1
2017-Oct-16 08:30N 50°58' E 001°48'1019.1
2017-Oct-16 08:00N 51°01' E 001°33'918.0
2017-Oct-16 07:30N 51°06' E 001°22'2 2.9
2017-Oct-16 06:57N 51°07' E 001°20'0 0.0
2017-Oct-16 06:30N 51°07' E 001°20'0 0.2
2017-Oct-16 06:01N 51°07' E 001°20'816.7
2017-Oct-16 05:30N 51°04' E 001°32'1019.1
2017-Oct-16 05:00N 50°58' E 001°45'4 8.0
2017-Oct-16 04:30N 50°58' E 001°51'0 0.0
2017-Oct-16 04:00N 50°58' E 001°51'1 2.8
2017-Oct-16 03:31N 50°58' E 001°49'714.3
2017-Oct-16 03:00N 50°59' E 001°38'918.2
2017-Oct-16 02:30N 51°05' E 001°26'5 4.4
2017-Oct-16 01:29N 51°07' E 001°20'0 0.1
2017-Oct-16 01:00N 51°07' E 001°20'611.7
2017-Oct-16 00:31N 51°05' E 001°29'917.5
2017-Oct-16 00:01N 51°00' E 001°40'714.6
2017-Oct-15 23:31N 50°58' E 001°51'0 0.2
2017-Oct-15 23:00N 50°58' E 001°51'0 0.0
2017-Oct-15 22:30N 50°58' E 001°51'5 9.9
2017-Oct-15 22:00N 50°58' E 001°43'917.7
2017-Oct-15 21:30N 51°02' E 001°31'817.0
2017-Oct-15 21:00N 51°07' E 001°20'1 0.9
2017-Oct-15 20:25N 51°07' E 001°20'3 6.6
2017-Oct-15 20:01N 51°07' E 001°24'611.3
2017-Oct-15 19:31N 51°06' E 001°33'918.4
2017-Oct-15 19:01N 50°59' E 001°43'5 9.8
2017-Oct-15 18:30N 50°58' E 001°51'0 0.0
2017-Oct-15 18:00N 50°58' E 001°51'1 2.4
2017-Oct-15 17:30N 50°58' E 001°49'917.7
2017-Oct-15 17:00N 51°01' E 001°36'918.6
2017-Oct-15 16:30N 51°06' E 001°24'3 5.1
2017-Oct-15 16:00N 51°07' E 001°20'0 0.3
2017-Oct-15 15:29N 51°07' E 001°20'817.3
2017-Oct-15 15:00N 51°04' E 001°32'1313.0
2017-Oct-15 14:00N 50°58' E 001°51'0 0.0
2017-Oct-15 13:30N 50°58' E 001°51'2 4.2
2017-Oct-15 13:00N 50°58' E 001°48'917.8
2017-Oct-15 12:30N 51°01' E 001°34'918.8
2017-Oct-15 12:00N 51°07' E 001°22'1 2.8
2017-Oct-15 11:29N 51°07' E 001°20'1 1.2
2017-Oct-15 11:00N 51°07' E 001°21'917.5
2017-Oct-15 10:30N 51°05' E 001°34'918.3
2017-Oct-15 10:01N 50°58' E 001°45'4 7.9
2017-Oct-15 09:30N 50°58' E 001°51'0 0.0
2017-Oct-15 09:00N 50°58' E 001°51'1 2.0
2017-Oct-15 08:31N 50°58' E 001°50'1019.6
2017-Oct-15 08:01N 50°59' E 001°34'918.3
2017-Oct-15 07:31N 51°06' E 001°23'3 5.3
2017-Oct-15 07:00N 51°07' E 001°20'0 0.7
2017-Oct-15 06:31N 51°07' E 001°21'917.3
2017-Oct-15 06:00N 51°04' E 001°33'918.3
2017-Oct-15 05:30N 50°58' E 001°45'4 8.6
2017-Oct-15 05:00N 50°58' E 001°51'0 0.2
2017-Oct-15 04:30N 50°58' E 001°51'714.4
2017-Oct-15 04:00N 50°58' E 001°40'917.5
2017-Oct-15 03:30N 51°02' E 001°28'713.5
2017-Oct-15 02:59N 51°07' E 001°20'0 0.0
2017-Oct-15 02:30N 51°07' E 001°20'0 0.0
2017-Oct-15 02:00N 51°07' E 001°20'0 0.0
2017-Oct-15 01:28N 51°07' E 001°20'510.5
2017-Oct-15 01:01N 51°07' E 001°28'612.8
2017-Oct-15 00:30N 51°03' E 001°36'918.2
2017-Oct-15 00:00N 50°58' E 001°48'2 4.0
2017-Oct-14 23:30N 50°58' E 001°51'0 0.0
2017-Oct-14 23:00N 50°58' E 001°51'0 0.1
2017-Oct-14 22:30N 50°58' E 001°51'713.4
2017-Oct-14 22:00N 50°59' E 001°41'816.9
2017-Oct-14 21:30N 51°04' E 001°30'714.3
2017-Oct-14 21:00N 51°07' E 001°20'0 0.0
2017-Oct-14 20:30N 51°07' E 001°20'1 2.1
2017-Oct-14 20:00N 51°07' E 001°22'917.6
2017-Oct-14 19:30N 51°04' E 001°34'917.9
2017-Oct-14 19:01N 50°58' E 001°46'4 7.0
2017-Oct-14 18:30N 50°58' E 001°51'0 0.0
2017-Oct-14 18:00N 50°58' E 001°51'2 3.6
2017-Oct-14 17:30N 50°58' E 001°48'917.5
2017-Oct-14 16:59N 51°00' E 001°34'817.1
2017-Oct-14 16:31N 51°05' E 001°24'3 5.7
2017-Oct-14 15:56N 51°07' E 001°20'0 0.1
2017-Oct-14 15:30N 51°07' E 001°20'714.4
2017-Oct-14 15:00N 51°06' E 001°31'918.5
2017-Oct-14 14:30N 50°59' E 001°42'610.9
2017-Oct-14 14:00N 50°58' E 001°51'0 0.0
2017-Oct-14 13:31N 50°58' E 001°51'3 6.2
2017-Oct-14 13:00N 50°58' E 001°46'917.5
2017-Oct-14 12:30N 51°02' E 001°34'918.4
2017-Oct-14 12:00N 51°07' E 001°22'1 1.8
2017-Oct-14 11:26N 51°07' E 001°20'0 0.0
2017-Oct-14 10:59N 51°07' E 001°20'612.4
2017-Oct-14 10:30N 51°05' E 001°29'918.8
2017-Oct-14 10:00N 51°00' E 001°41'612.9
2017-Oct-14 09:30N 50°58' E 001°51'0 0.0
2017-Oct-14 09:00N 50°58' E 001°51'2 4.1
2017-Oct-14 08:30N 50°58' E 001°48'918.5
2017-Oct-14 08:00N 51°01' E 001°34'918.7
2017-Oct-14 07:31N 51°07' E 001°22'2 3.1
2017-Oct-14 07:00N 51°07' E 001°20'0 0.0
2017-Oct-14 06:30N 51°07' E 001°20'4 8.9
2017-Oct-14 06:01N 51°06' E 001°27'816.4
2017-Oct-14 05:31N 51°02' E 001°38'714.7
2017-Oct-14 05:00N 50°58' E 001°48'2 3.1
2017-Oct-14 04:26N 50°58' E 001°51'0 0.0
2017-Oct-14 04:00N 50°58' E 001°51'3 6.7
2017-Oct-14 03:30N 50°58' E 001°46'816.4
2017-Oct-14 03:00N 51°01' E 001°33'917.2
2017-Oct-14 02:31N 51°06' E 001°23'2 4.4
2017-Oct-14 02:00N 51°07' E 001°20'0 0.0
2017-Oct-14 01:30N 51°07' E 001°20'0 0.0
2017-Oct-14 01:00N 51°07' E 001°20'611.5
2017-Oct-14 00:30N 51°06' E 001°29'917.5
2017-Oct-14 00:01N 51°00' E 001°39'714.9
2017-Oct-13 23:31N 50°58' E 001°51'0 0.4
2017-Oct-13 23:00N 50°58' E 001°51'0 0.0
2017-Oct-13 22:30N 50°58' E 001°51'611.5
2017-Oct-13 22:00N 50°58' E 001°42'918.7
2017-Oct-13 21:30N 51°03' E 001°29'712.2
2017-Oct-13 20:56N 51°07' E 001°20'0 0.0
2017-Oct-13 20:30N 51°07' E 001°20'1 2.0
2017-Oct-13 20:00N 51°07' E 001°22'917.6
2017-Oct-13 19:30N 51°04' E 001°35'918.2
2017-Oct-13 19:00N 50°58' E 001°45'4 7.2
2017-Oct-13 18:30N 50°58' E 001°51'0 0.0
2017-Oct-13 18:00N 50°58' E 001°51'611.1
2017-Oct-13 17:30N 50°58' E 001°42'1019.2
2017-Oct-13 17:00N 51°04' E 001°30'712.7
2017-Oct-13 16:27N 51°07' E 001°20'0 0.0
2017-Oct-13 16:00N 51°07' E 001°20'510.5
2017-Oct-13 15:31N 51°06' E 001°28'918.2
2017-Oct-13 15:00N 51°01' E 001°40'714.8
2017-Oct-13 14:31N 50°58' E 001°51'0 0.4
2017-Oct-13 14:00N 50°58' E 001°51'0 0.0
2017-Oct-13 13:31N 50°58' E 001°51'4 7.8
2017-Oct-13 13:00N 50°58' E 001°45'918.0
2017-Oct-13 12:30N 51°01' E 001°31'918.2
2017-Oct-13 12:00N 51°07' E 001°20'1 1.0
2017-Oct-13 11:17N 51°07' E 001°20'0 0.3
2017-Oct-13 10:59N 51°07' E 001°20'715.1
2017-Oct-13 10:30N 51°05' E 001°31'1019.2
2017-Oct-13 10:01N 50°59' E 001°43'510.2
2017-Oct-13 09:30N 50°58' E 001°51'0 0.0
2017-Oct-13 09:01N 50°58' E 001°51'3 6.6
2017-Oct-13 08:30N 50°58' E 001°46'918.1
2017-Oct-13 08:00N 51°02' E 001°33'918.3
2017-Oct-13 07:30N 51°07' E 001°21'1 0.8
2017-Oct-13 06:51N 51°07' E 001°20'0 0.0
2017-Oct-13 06:30N 51°07' E 001°20'511.1
2017-Oct-13 06:01N 51°06' E 001°28'816.6
2017-Oct-13 05:31N 51°01' E 001°39'713.6
2017-Oct-13 05:00N 50°58' E 001°49'1 2.0
2017-Oct-13 04:25N 50°58' E 001°51'0 0.0
2017-Oct-13 04:00N 50°58' E 001°51'0 0.0
2017-Oct-13 03:29N 50°58' E 001°51'0 0.0
2017-Oct-13 03:00N 50°58' E 001°51'0 0.0
2017-Oct-13 02:30N 50°58' E 001°51'0 0.0
2017-Oct-13 02:00N 50°58' E 001°51'0 0.0
2017-Oct-13 01:30N 50°58' E 001°51'0 0.0
2017-Oct-13 01:00N 50°58' E 001°51'0 0.0
2017-Oct-13 00:30N 50°58' E 001°51'0 0.2
2017-Oct-13 00:00N 50°58' E 001°51'0 0.2
2017-Oct-12 23:30N 50°58' E 001°51'0 0.0
2017-Oct-12 23:00N 50°58' E 001°51'0 0.0
2017-Oct-12 22:30N 50°58' E 001°51'5 9.1
2017-Oct-12 22:00N 50°58' E 001°44'917.9
2017-Oct-12 21:30N 51°02' E 001°32'917.7
2017-Oct-12 21:00N 51°07' E 001°20'1 0.7
2017-Oct-12 20:18N 51°07' E 001°20'0 0.3
2017-Oct-12 19:59N 51°07' E 001°20'714.5
2017-Oct-12 19:30N 51°05' E 001°31'918.2
2017-Oct-12 19:00N 50°60' E 001°42'611.7
2017-Oct-12 18:30N 50°58' E 001°51'0 0.0
2017-Oct-12 17:58N 50°58' E 001°51'1 3.2
2017-Oct-12 17:30N 50°58' E 001°49'918.8
2017-Oct-12 17:00N 51°01' E 001°34'918.8
2017-Oct-12 16:31N 51°07' E 001°22'2 2.4
2017-Oct-12 15:46N 51°07' E 001°20'1 3.0
2017-Oct-12 15:29N 51°07' E 001°21'816.9
2017-Oct-12 15:00N 51°04' E 001°33'918.0
2017-Oct-12 14:30N 50°58' E 001°44'4 7.4
2017-Oct-12 13:56N 50°58' E 001°51'0 0.0
2017-Oct-12 13:30N 50°58' E 001°51'3 5.5
2017-Oct-12 13:00N 50°58' E 001°47'917.8
2017-Oct-12 12:30N 51°01' E 001°33'1018.7
2017-Oct-12 11:59N 51°07' E 001°21'1 1.0
2017-Oct-12 11:10N 51°07' E 001°20'0 1.2
2017-Oct-12 11:00N 51°07' E 001°20'817.0
2017-Oct-12 10:30N 51°04' E 001°33'1019.2
2017-Oct-12 10:01N 50°58' E 001°45'4 7.5
2017-Oct-12 09:30N 50°58' E 001°51'0 0.0
2017-Oct-12 09:00N 50°58' E 001°51'2 3.5
2017-Oct-12 08:30N 50°58' E 001°48'917.7
2017-Oct-12 08:00N 50°60' E 001°34'918.2
2017-Oct-12 07:30N 51°06' E 001°24'3 2.8
2017-Oct-12 06:29N 51°07' E 001°20'612.4
2017-Oct-12 06:00N 51°06' E 001°29'917.6
2017-Oct-12 05:30N 51°00' E 001°40'714.1
2017-Oct-12 05:00N 50°58' E 001°51'0 0.2
2017-Oct-12 04:29N 50°58' E 001°51'0 0.0
2017-Oct-12 03:59N 50°58' E 001°51'1 3.2
2017-Oct-12 03:30N 50°58' E 001°49'918.1
2017-Oct-12 03:00N 51°00' E 001°35'817.1
2017-Oct-12 02:30N 51°06' E 001°24'3 4.7
2017-Oct-12 01:52N 51°07' E 001°20'0 0.0
2017-Oct-12 01:11N 51°07' E 001°20'0 0.9
2017-Oct-12 01:00N 51°07' E 001°20'816.5
2017-Oct-12 00:31N 51°04' E 001°32'816.4
2017-Oct-12 00:00N 50°59' E 001°43'510.5
2017-Oct-11 23:30N 50°58' E 001°51'0 0.0
2017-Oct-11 23:00N 50°58' E 001°51'611.4
2017-Oct-11 22:30N 50°58' E 001°42'816.5
2017-Oct-11 22:00N 51°02' E 001°31'917.0
2017-Oct-11 21:30N 51°07' E 001°20'0 0.1
2017-Oct-11 20:41N 51°07' E 001°20'0 0.7
2017-Oct-11 20:27N 51°07' E 001°20'3 7.8
2017-Oct-11 20:01N 51°07' E 001°26'815.4
2017-Oct-11 19:30N 51°03' E 001°36'917.1
2017-Oct-11 19:00N 50°58' E 001°47'2 4.6
2017-Oct-11 18:30N 50°58' E 001°51'0 0.1
2017-Oct-11 18:00N 50°58' E 001°51'714.9
2017-Oct-11 17:31N 50°59' E 001°39'918.6
2017-Oct-11 17:00N 51°04' E 001°27'17 1.0
2017-Oct-11 00:00N 50°58' E 001°52'0 0.0
2017-Oct-10 23:30N 50°58' E 001°52'1 1.1
2017-Oct-10 23:00N 50°58' E 001°51'815.2
2017-Oct-10 22:31N 50°60' E 001°39'917.8
2017-Oct-10 22:01N 51°04' E 001°27'5 4.0
2017-Oct-10 20:41N 51°07' E 001°20'0 1.1
2017-Oct-10 20:30N 51°07' E 001°20'917.3
2017-Oct-10 20:00N 51°04' E 001°33'917.9
2017-Oct-10 19:30N 50°58' E 001°44'4 8.6
2017-Oct-10 19:00N 50°58' E 001°51'0 0.1
2017-Oct-10 18:30N 50°58' E 001°51'713.2
2017-Oct-10 18:00N 50°58' E 001°40'918.0
2017-Oct-10 17:30N 51°03' E 001°29'7 7.2
2017-Oct-10 16:31N 51°07' E 001°20'0 0.7
2017-Oct-10 16:27N 51°07' E 001°20'2 3.9
2017-Oct-10 16:00N 51°07' E 001°23'2 3.5
2017-Oct-10 15:30N 51°07' E 001°25'816.3
2017-Oct-10 15:00N 51°02' E 001°37'1010.0
2017-Oct-10 14:00N 50°58' E 001°51'0 0.0
2017-Oct-10 13:26N 50°58' E 001°51'613.4
2017-Oct-10 13:00N 50°58' E 001°42'918.3
2017-Oct-10 12:29N 51°03' E 001°29'7 8.4
2017-Oct-10 11:39N 51°07' E 001°20'0 0.0
2017-Oct-10 11:28N 51°07' E 001°20'0 0.8
2017-Oct-10 11:00N 51°07' E 001°21'917.9
2017-Oct-10 10:31N 51°03' E 001°33'918.5
2017-Oct-10 10:01N 50°58' E 001°45'4 7.7
2017-Oct-10 09:30N 50°58' E 001°51'0 0.0
2017-Oct-10 09:00N 50°58' E 001°51'4 7.5
2017-Oct-10 08:30N 50°58' E 001°45'816.0
2017-Oct-10 08:00N 51°01' E 001°34'917.9
2017-Oct-10 07:30N 51°07' E 001°22'2 1.4
2017-Oct-10 06:25N 51°07' E 001°20'410.5
2017-Oct-10 06:01N 51°06' E 001°27'816.3
2017-Oct-10 05:31N 51°02' E 001°37'815.3
2017-Oct-10 05:00N 50°58' E 001°48'2 3.5
2017-Oct-10 04:30N 50°58' E 001°51'0 0.0
2017-Oct-10 04:00N 50°58' E 001°51'2 4.4
2017-Oct-10 03:31N 50°58' E 001°48'918.0
2017-Oct-10 03:01N 50°60' E 001°34'815.7
2017-Oct-10 02:30N 51°05' E 001°25'4 5.2
2017-Oct-10 01:49N 51°07' E 001°20'0 0.0
2017-Oct-10 01:03N 51°07' E 001°20'0 0.0
2017-Oct-10 00:59N 51°07' E 001°20'510.7
2017-Oct-10 00:31N 51°06' E 001°28'918.2
2017-Oct-10 00:01N 50°59' E 001°38'816.0
2017-Oct-09 23:30N 50°58' E 001°51'0 0.4
2017-Oct-09 23:00N 50°58' E 001°51'1 1.3
2017-Oct-09 22:30N 50°58' E 001°50'816.0
2017-Oct-09 22:00N 50°58' E 001°37'815.9
2017-Oct-09 21:30N 51°03' E 001°27'6 5.4
2017-Oct-09 20:20N 51°07' E 001°20'2 6.8
2017-Oct-09 20:00N 51°07' E 001°24'918.2
2017-Oct-09 19:30N 51°03' E 001°36'917.7
2017-Oct-09 19:00N 50°58' E 001°49'2 3.1
2017-Oct-09 18:31N 50°58' E 001°51'0 0.1
2017-Oct-09 18:00N 50°58' E 001°51'714.9
2017-Oct-09 17:30N 50°59' E 001°39'918.5
2017-Oct-09 17:01N 51°04' E 001°27'5 7.3
2017-Oct-09 16:16N 51°07' E 001°20'0 0.0
2017-Oct-09 15:52N 51°07' E 001°20'2 6.5
2017-Oct-09 15:31N 51°07' E 001°24'816.7
2017-Oct-09 15:01N 51°04' E 001°36'816.9
2017-Oct-09 14:31N 50°58' E 001°46'3 3.1
2017-Oct-09 13:30N 50°58' E 001°51'4 7.8
2017-Oct-09 13:00N 50°58' E 001°45'1019.3
2017-Oct-09 12:31N 51°03' E 001°32'816.6
2017-Oct-09 12:00N 51°07' E 001°20'0 0.2
2017-Oct-09 11:03N 51°07' E 001°20'0 0.6
2017-Oct-09 11:00N 51°07' E 001°20'713.3
2017-Oct-09 10:31N 51°05' E 001°30'1019.0
2017-Oct-09 10:00N 50°59' E 001°42'611.5
2017-Oct-09 09:30N 50°58' E 001°51'0 0.0
2017-Oct-09 09:00N 50°58' E 001°51'4 8.2
2017-Oct-09 08:30N 50°58' E 001°45'917.3
2017-Oct-09 08:00N 51°02' E 001°32'816.6
2017-Oct-09 07:31N 51°07' E 001°22'1 1.5
2017-Oct-09 06:41N 51°07' E 001°20'0 0.6
2017-Oct-09 06:29N 51°07' E 001°20'715.4
2017-Oct-09 06:01N 51°04' E 001°31'918.5
2017-Oct-09 05:31N 50°59' E 001°43'611.2
2017-Oct-09 05:00N 50°58' E 001°52'0 0.0
2017-Oct-09 04:30N 50°58' E 001°52'0 0.4
2017-Oct-09 04:00N 50°58' E 001°51'815.4
2017-Oct-09 03:30N 50°59' E 001°39'919.1
2017-Oct-09 03:01N 51°04' E 001°26'5 9.7
2017-Oct-09 02:29N 51°07' E 001°20'0 0.0
2017-Oct-09 01:57N 51°07' E 001°20'3 6.5
2017-Oct-09 01:30N 51°07' E 001°25'816.5
2017-Oct-09 01:00N 51°03' E 001°36'816.4
2017-Oct-09 00:30N 50°58' E 001°46'3 6.7
2017-Oct-09 00:00N 50°58' E 001°52'0 0.0
2017-Oct-08 23:30N 50°58' E 001°52'0 0.0
2017-Oct-08 23:00N 50°58' E 001°52'0 0.1
2017-Oct-08 22:30N 50°58' E 001°52'713.7
2017-Oct-08 22:00N 50°58' E 001°41'918.0
2017-Oct-08 21:31N 51°03' E 001°29'711.7
2017-Oct-08 20:55N 51°07' E 001°20'0 0.0
2017-Oct-08 20:20N 51°07' E 001°20'1 3.4
2017-Oct-08 20:00N 51°07' E 001°22'918.8
2017-Oct-08 19:30N 51°03' E 001°35'918.1
2017-Oct-08 19:01N 50°58' E 001°47'2 4.9
2017-Oct-08 18:30N 50°58' E 001°51'0 0.0
2017-Oct-08 18:00N 50°58' E 001°51'4 8.5
2017-Oct-08 17:30N 50°58' E 001°44'917.0
2017-Oct-08 17:00N 50°59' E 001°31'1018.9
2017-Oct-08 16:30N 51°07' E 001°22'1 1.4
2017-Oct-08 15:44N 51°07' E 001°20'0 2.1
2017-Oct-08 15:30N 51°07' E 001°21'816.7
2017-Oct-08 15:01N 51°06' E 001°34'918.3
2017-Oct-08 14:30N 50°59' E 001°44'5 8.9
2017-Oct-08 13:58N 50°58' E 001°51'0 0.0
2017-Oct-08 13:26N 50°58' E 001°51'3 7.2
2017-Oct-08 13:00N 50°58' E 001°46'1019.6
2017-Oct-08 12:29N 51°03' E 001°32'917.3
2017-Oct-08 11:59N 51°07' E 001°20'0 0.0
2017-Oct-08 11:21N 51°07' E 001°20'3 9.7
2017-Oct-08 11:01N 51°06' E 001°25'1019.2
2017-Oct-08 10:30N 51°01' E 001°38'917.3
2017-Oct-08 10:00N 50°58' E 001°51'0 0.4
2017-Oct-08 09:29N 50°58' E 001°51'4 7.8
2017-Oct-08 09:01N 50°58' E 001°45'815.8
2017-Oct-08 08:30N 50°59' E 001°33'919.0
2017-Oct-08 08:01N 51°06' E 001°23'2 3.1
2017-Oct-08 07:15N 51°07' E 001°20'0 0.0
2017-Oct-08 06:48N 51°07' E 001°20'0 0.0
2017-Oct-08 06:02N 51°07' E 001°20'0 0.0
2017-Oct-08 05:58N 51°07' E 001°20'0 0.0
2017-Oct-08 05:18N 51°07' E 001°20'0 0.0
2017-Oct-08 04:47N 51°07' E 001°20'0 0.0
2017-Oct-08 04:28N 51°07' E 001°20'0 0.0
2017-Oct-07 23:36N 51°07' E 001°20'0 0.0
2017-Oct-07 23:30N 51°07' E 001°20'0 0.0
2017-Oct-07 21:25N 51°07' E 001°20'0 0.0
2017-Oct-07 20:58N 51°07' E 001°20'0 0.3
2017-Oct-07 20:30N 51°07' E 001°20'715.5
2017-Oct-07 20:01N 51°04' E 001°31'917.8
2017-Oct-07 19:31N 50°58' E 001°42'611.7
2017-Oct-07 19:00N 50°58' E 001°51'0 0.0
2017-Oct-07 18:30N 50°58' E 001°51'3 6.3
2017-Oct-07 18:00N 50°58' E 001°46'917.2
2017-Oct-07 17:30N 51°02' E 001°34'917.9
2017-Oct-07 17:00N 51°07' E 001°22'1 2.2
2017-Oct-07 16:20N 51°07' E 001°20'2 5.2
2017-Oct-07 16:00N 51°07' E 001°23'815.1
2017-Oct-07 15:30N 51°04' E 001°33'917.4
2017-Oct-07 15:00N 50°58' E 001°44'4 8.2
2017-Oct-07 14:30N 50°58' E 001°51'0 0.0
2017-Oct-07 14:00N 50°58' E 001°51'3 6.4
2017-Oct-07 13:30N 50°58' E 001°46'918.4
2017-Oct-07 13:00N 51°02' E 001°32'9 6.8
2017-Oct-07 11:37N 51°07' E 001°20'0 1.0
2017-Oct-07 11:29N 51°07' E 001°20'5 9.6
2017-Oct-07 11:00N 51°06' E 001°27'917.2
2017-Oct-07 10:30N 51°01' E 001°38'815.5
2017-Oct-07 10:00N 50°58' E 001°50'1 1.7
2017-Oct-07 09:30N 50°58' E 001°51'0 0.0
2017-Oct-07 09:00N 50°58' E 001°51'3 5.7
2017-Oct-07 08:30N 50°58' E 001°47'816.4
2017-Oct-07 08:00N 51°01' E 001°34'918.0
2017-Oct-07 07:31N 51°06' E 001°23'2 2.5
2017-Oct-07 06:40N 51°07' E 001°20'0 0.0
2017-Oct-07 06:29N 51°07' E 001°20'  
Track history (hours):
 
Tides and Currents Weather Stations Pressure Air Temp Water Temp Dewpoint Dewpoint Depression Visibility Wind Speed Wind Dir Waves Ship Positions

Pride Of Kent

Operator: P & O Ferries

Last reported at 2017-Oct-17 06:00 UTC. Time now 2017-Oct-17 06:08 UTC.
Position N 51°07' E 001°26'.

Length 180 m; draft 6 m.

Type: Passenger vessel. MMSI: 232009000.

Date/timePositionNaut miles runAvg speedWind from/ knotsBaromVisibWave heightAir tempDewpointWater temp
2017-Oct-17 06:00N 51°07' E 001°26'816.1
2017-Oct-17 05:30N 51°01' E 001°35'815.5
2017-Oct-17 05:00N 50°58' E 001°46'3 5.7
2017-Oct-17 04:30N 50°58' E 001°51'0 0.0
2017-Oct-17 04:00N 50°58' E 001°51'2 3.5
2017-Oct-17 03:31N 50°58' E 001°48'815.4
2017-Oct-17 03:01N 51°00' E 001°37'917.0
2017-Oct-17 02:31N 51°05' E 001°26'4 6.5
2017-Oct-17 01:53N 51°07' E 001°20'0 0.0
2017-Oct-17 01:29N 51°07' E 001°20'0 0.0
2017-Oct-17 01:00N 51°07' E 001°20'511.2
2017-Oct-17 00:31N 51°07' E 001°29'815.8
2017-Oct-17 00:01N 51°01' E 001°38'714.4
2017-Oct-16 23:30N 50°58' E 001°48'2 3.3
2017-Oct-16 23:00N 50°58' E 001°51'0 0.0
2017-Oct-16 22:27N 50°58' E 001°51'715.3
2017-Oct-16 22:00N 50°58' E 001°40'918.4
2017-Oct-16 21:30N 51°03' E 001°28'6 8.2
2017-Oct-16 20:43N 51°07' E 001°20'0 0.0
2017-Oct-16 20:17N 51°07' E 001°20'0 0.7
2017-Oct-16 19:59N 51°07' E 001°20'715.3
2017-Oct-16 19:30N 51°04' E 001°31'917.7
2017-Oct-16 19:00N 50°59' E 001°42'611.1
2017-Oct-16 18:30N 50°58' E 001°51'0 0.0
2017-Oct-16 18:00N 50°58' E 001°51'612.7
2017-Oct-16 17:31N 50°58' E 001°41'918.1
2017-Oct-16 17:00N 51°03' E 001°29'7 5.7
2017-Oct-16 15:45N 51°07' E 001°20'1 4.5
2017-Oct-16 15:30N 51°07' E 001°22'918.3
2017-Oct-16 15:00N 51°03' E 001°35'918.2
2017-Oct-16 14:31N 50°58' E 001°47'2 2.5
2017-Oct-16 13:30N 50°58' E 001°51'816.4
2017-Oct-16 13:00N 50°58' E 001°38'816.6
2017-Oct-16 12:30N 51°04' E 001°28'6 8.4
2017-Oct-16 11:45N 51°07' E 001°20'0 0.0
2017-Oct-16 11:30N 51°07' E 001°20'0 0.6
2017-Oct-16 11:00N 51°07' E 001°20'816.4
2017-Oct-16 10:30N 51°05' E 001°33'917.7
2017-Oct-16 10:00N 50°59' E 001°43'510.2
2017-Oct-16 09:30N 50°58' E 001°51'0 0.0
2017-Oct-16 09:00N 50°58' E 001°51'2 4.1
2017-Oct-16 08:30N 50°58' E 001°48'1019.1
2017-Oct-16 08:00N 51°01' E 001°33'918.0
2017-Oct-16 07:30N 51°06' E 001°22'2 2.9
2017-Oct-16 06:57N 51°07' E 001°20'0 0.0
2017-Oct-16 06:30N 51°07' E 001°20'0 0.2
2017-Oct-16 06:01N 51°07' E 001°20'816.7
2017-Oct-16 05:30N 51°04' E 001°32'1019.1
2017-Oct-16 05:00N 50°58' E 001°45'4 8.0
2017-Oct-16 04:30N 50°58' E 001°51'0 0.0
2017-Oct-16 04:00N 50°58' E 001°51'1 2.8
2017-Oct-16 03:31N 50°58' E 001°49'714.3
2017-Oct-16 03:00N 50°59' E 001°38'918.2
2017-Oct-16 02:30N 51°05' E 001°26'5 4.4
2017-Oct-16 01:29N 51°07' E 001°20'0 0.1
2017-Oct-16 01:00N 51°07' E 001°20'611.7
2017-Oct-16 00:31N 51°05' E 001°29'917.5
2017-Oct-16 00:01N 51°00' E 001°40'714.6
2017-Oct-15 23:31N 50°58' E 001°51'0 0.2
2017-Oct-15 23:00N 50°58' E 001°51'0 0.0
2017-Oct-15 22:30N 50°58' E 001°51'5 9.9
2017-Oct-15 22:00N 50°58' E 001°43'917.7
2017-Oct-15 21:30N 51°02' E 001°31'817.0
2017-Oct-15 21:00N 51°07' E 001°20'1 0.9
2017-Oct-15 20:25N 51°07' E 001°20'3 6.6
2017-Oct-15 20:01N 51°07' E 001°24'611.3
2017-Oct-15 19:31N 51°06' E 001°33'918.4
2017-Oct-15 19:01N 50°59' E 001°43'5 9.8
2017-Oct-15 18:30N 50°58' E 001°51'0 0.0
2017-Oct-15 18:00N 50°58' E 001°51'1 2.4
2017-Oct-15 17:30N 50°58' E 001°49'917.7
2017-Oct-15 17:00N 51°01' E 001°36'918.6
2017-Oct-15 16:30N 51°06' E 001°24'3 5.1
2017-Oct-15 16:00N 51°07' E 001°20'0 0.3
2017-Oct-15 15:29N 51°07' E 001°20'817.3
2017-Oct-15 15:00N 51°04' E 001°32'1313.0
2017-Oct-15 14:00N 50°58' E 001°51'0 0.0
2017-Oct-15 13:30N 50°58' E 001°51'2 4.2
2017-Oct-15 13:00N 50°58' E 001°48'917.8
2017-Oct-15 12:30N 51°01' E 001°34'918.8
2017-Oct-15 12:00N 51°07' E 001°22'1 2.8
2017-Oct-15 11:29N 51°07' E 001°20'1 1.2
2017-Oct-15 11:00N 51°07' E 001°21'917.5
2017-Oct-15 10:30N 51°05' E 001°34'918.3
2017-Oct-15 10:01N 50°58' E 001°45'4 7.9
2017-Oct-15 09:30N 50°58' E 001°51'0 0.0
2017-Oct-15 09:00N 50°58' E 001°51'1 2.0
2017-Oct-15 08:31N 50°58' E 001°50'1019.6
2017-Oct-15 08:01N 50°59' E 001°34'918.3
2017-Oct-15 07:31N 51°06' E 001°23'3 5.3
2017-Oct-15 07:00N 51°07' E 001°20'0 0.7
2017-Oct-15 06:31N 51°07' E 001°21'917.3
2017-Oct-15 06:00N 51°04' E 001°33'918.3
2017-Oct-15 05:30N 50°58' E 001°45'4 8.6
2017-Oct-15 05:00N 50°58' E 001°51'0 0.2
2017-Oct-15 04:30N 50°58' E 001°51'714.4
2017-Oct-15 04:00N 50°58' E 001°40'917.5
2017-Oct-15 03:30N 51°02' E 001°28'713.5
2017-Oct-15 02:59N 51°07' E 001°20'0 0.0
2017-Oct-15 02:30N 51°07' E 001°20'0 0.0
2017-Oct-15 02:00N 51°07' E 001°20'0 0.0
2017-Oct-15 01:28N 51°07' E 001°20'510.5
2017-Oct-15 01:01N 51°07' E 001°28'612.8
2017-Oct-15 00:30N 51°03' E 001°36'918.2
2017-Oct-15 00:00N 50°58' E 001°48'2 4.0
2017-Oct-14 23:30N 50°58' E 001°51'0 0.0
2017-Oct-14 23:00N 50°58' E 001°51'0 0.1
2017-Oct-14 22:30N 50°58' E 001°51'713.4
2017-Oct-14 22:00N 50°59' E 001°41'816.9
2017-Oct-14 21:30N 51°04' E 001°30'714.3
2017-Oct-14 21:00N 51°07' E 001°20'0 0.0
2017-Oct-14 20:30N 51°07' E 001°20'1 2.1
2017-Oct-14 20:00N 51°07' E 001°22'917.6
2017-Oct-14 19:30N 51°04' E 001°34'917.9
2017-Oct-14 19:01N 50°58' E 001°46'4 7.0
2017-Oct-14 18:30N 50°58' E 001°51'0 0.0
2017-Oct-14 18:00N 50°58' E 001°51'2 3.6
2017-Oct-14 17:30N 50°58' E 001°48'917.5
2017-Oct-14 16:59N 51°00' E 001°34'817.1
2017-Oct-14 16:31N 51°05' E 001°24'3 5.7
2017-Oct-14 15:56N 51°07' E 001°20'0 0.1
2017-Oct-14 15:30N 51°07' E 001°20'714.4
2017-Oct-14 15:00N 51°06' E 001°31'918.5
2017-Oct-14 14:30N 50°59' E 001°42'610.9
2017-Oct-14 14:00N 50°58' E 001°51'0 0.0
2017-Oct-14 13:31N 50°58' E 001°51'3 6.2
2017-Oct-14 13:00N 50°58' E 001°46'917.5
2017-Oct-14 12:30N 51°02' E 001°34'918.4
2017-Oct-14 12:00N 51°07' E 001°22'1 1.8
2017-Oct-14 11:26N 51°07' E 001°20'0 0.0
2017-Oct-14 10:59N 51°07' E 001°20'612.4
2017-Oct-14 10:30N 51°05' E 001°29'918.8
2017-Oct-14 10:00N 51°00' E 001°41'612.9
2017-Oct-14 09:30N 50°58' E 001°51'0 0.0
2017-Oct-14 09:00N 50°58' E 001°51'2 4.1
2017-Oct-14 08:30N 50°58' E 001°48'918.5
2017-Oct-14 08:00N 51°01' E 001°34'918.7
2017-Oct-14 07:31N 51°07' E 001°22'2 3.1
2017-Oct-14 07:00N 51°07' E 001°20'0 0.0
2017-Oct-14 06:30N 51°07' E 001°20'4 8.9
2017-Oct-14 06:01N 51°06' E 001°27'816.4
2017-Oct-14 05:31N 51°02' E 001°38'714.7
2017-Oct-14 05:00N 50°58' E 001°48'2 3.1
2017-Oct-14 04:26N 50°58' E 001°51'0 0.0
2017-Oct-14 04:00N 50°58' E 001°51'3 6.7
2017-Oct-14 03:30N 50°58' E 001°46'816.4
2017-Oct-14 03:00N 51°01' E 001°33'917.2
2017-Oct-14 02:31N 51°06' E 001°23'2 4.4
2017-Oct-14 02:00N 51°07' E 001°20'0 0.0
2017-Oct-14 01:30N 51°07' E 001°20'0 0.0
2017-Oct-14 01:00N 51°07' E 001°20'611.5
2017-Oct-14 00:30N 51°06' E 001°29'917.5
2017-Oct-14 00:01N 51°00' E 001°39'714.9
2017-Oct-13 23:31N 50°58' E 001°51'0 0.4
2017-Oct-13 23:00N 50°58' E 001°51'0 0.0
2017-Oct-13 22:30N 50°58' E 001°51'611.5
2017-Oct-13 22:00N 50°58' E 001°42'918.7
2017-Oct-13 21:30N 51°03' E 001°29'712.2
2017-Oct-13 20:56N 51°07' E 001°20'0 0.0
2017-Oct-13 20:30N 51°07' E 001°20'1 2.0
2017-Oct-13 20:00N 51°07' E 001°22'917.6
2017-Oct-13 19:30N 51°04' E 001°35'918.2
2017-Oct-13 19:00N 50°58' E 001°45'4 7.2
2017-Oct-13 18:30N 50°58' E 001°51'0 0.0
2017-Oct-13 18:00N 50°58' E 001°51'611.1
2017-Oct-13 17:30N 50°58' E 001°42'1019.2
2017-Oct-13 17:00N 51°04' E 001°30'712.7
2017-Oct-13 16:27N 51°07' E 001°20'0 0.0
2017-Oct-13 16:00N 51°07' E 001°20'510.5
2017-Oct-13 15:31N 51°06' E 001°28'918.2
2017-Oct-13 15:00N 51°01' E 001°40'714.8
2017-Oct-13 14:31N 50°58' E 001°51'0 0.4
2017-Oct-13 14:00N 50°58' E 001°51'0 0.0
2017-Oct-13 13:31N 50°58' E 001°51'4 7.8
2017-Oct-13 13:00N 50°58' E 001°45'918.0
2017-Oct-13 12:30N 51°01' E 001°31'918.2
2017-Oct-13 12:00N 51°07' E 001°20'1 1.0
2017-Oct-13 11:17N 51°07' E 001°20'0 0.3
2017-Oct-13 10:59N 51°07' E 001°20'715.1
2017-Oct-13 10:30N 51°05' E 001°31'1019.2
2017-Oct-13 10:01N 50°59' E 001°43'510.2
2017-Oct-13 09:30N 50°58' E 001°51'0 0.0
2017-Oct-13 09:01N 50°58' E 001°51'3 6.6
2017-Oct-13 08:30N 50°58' E 001°46'918.1
2017-Oct-13 08:00N 51°02' E 001°33'918.3
2017-Oct-13 07:30N 51°07' E 001°21'1 0.8
2017-Oct-13 06:51N 51°07' E 001°20'0 0.0
2017-Oct-13 06:30N 51°07' E 001°20'511.1
2017-Oct-13 06:01N 51°06' E 001°28'816.6
2017-Oct-13 05:31N 51°01' E 001°39'713.6
2017-Oct-13 05:00N 50°58' E 001°49'1 2.0
2017-Oct-13 04:25N 50°58' E 001°51'0 0.0
2017-Oct-13 04:00N 50°58' E 001°51'0 0.0
2017-Oct-13 03:29N 50°58' E 001°51'0 0.0
2017-Oct-13 03:00N 50°58' E 001°51'0 0.0
2017-Oct-13 02:30N 50°58' E 001°51'0 0.0
2017-Oct-13 02:00N 50°58' E 001°51'0 0.0
2017-Oct-13 01:30N 50°58' E 001°51'0 0.0
2017-Oct-13 01:00N 50°58' E 001°51'0 0.0
2017-Oct-13 00:30N 50°58' E 001°51'0 0.2
2017-Oct-13 00:00N 50°58' E 001°51'0 0.2
2017-Oct-12 23:30N 50°58' E 001°51'0 0.0
2017-Oct-12 23:00N 50°58' E 001°51'0 0.0
2017-Oct-12 22:30N 50°58' E 001°51'5 9.1
2017-Oct-12 22:00N 50°58' E 001°44'917.9
2017-Oct-12 21:30N 51°02' E 001°32'917.7
2017-Oct-12 21:00N 51°07' E 001°20'1 0.7
2017-Oct-12 20:18N 51°07' E 001°20'0 0.3
2017-Oct-12 19:59N 51°07' E 001°20'714.5
2017-Oct-12 19:30N 51°05' E 001°31'918.2
2017-Oct-12 19:00N 50°60' E 001°42'611.7
2017-Oct-12 18:30N 50°58' E 001°51'0 0.0
2017-Oct-12 17:58N 50°58' E 001°51'1 3.2
2017-Oct-12 17:30N 50°58' E 001°49'918.8
2017-Oct-12 17:00N 51°01' E 001°34'918.8
2017-Oct-12 16:31N 51°07' E 001°22'2 2.4
2017-Oct-12 15:46N 51°07' E 001°20'1 3.0
2017-Oct-12 15:29N 51°07' E 001°21'816.9
2017-Oct-12 15:00N 51°04' E 001°33'918.0
2017-Oct-12 14:30N 50°58' E 001°44'4 7.4
2017-Oct-12 13:56N 50°58' E 001°51'0 0.0
2017-Oct-12 13:30N 50°58' E 001°51'3 5.5
2017-Oct-12 13:00N 50°58' E 001°47'917.8
2017-Oct-12 12:30N 51°01' E 001°33'1018.7
2017-Oct-12 11:59N 51°07' E 001°21'1 1.0
2017-Oct-12 11:10N 51°07' E 001°20'0 1.2
2017-Oct-12 11:00N 51°07' E 001°20'817.0
2017-Oct-12 10:30N 51°04' E 001°33'1019.2
2017-Oct-12 10:01N 50°58' E 001°45'4 7.5
2017-Oct-12 09:30N 50°58' E 001°51'0 0.0
2017-Oct-12 09:00N 50°58' E 001°51'2 3.5
2017-Oct-12 08:30N 50°58' E 001°48'917.7
2017-Oct-12 08:00N 50°60' E 001°34'918.2
2017-Oct-12 07:30N 51°06' E 001°24'3 2.8
2017-Oct-12 06:29N 51°07' E 001°20'612.4
2017-Oct-12 06:00N 51°06' E 001°29'917.6
2017-Oct-12 05:30N 51°00' E 001°40'714.1
2017-Oct-12 05:00N 50°58' E 001°51'0 0.2
2017-Oct-12 04:29N 50°58' E 001°51'0 0.0
2017-Oct-12 03:59N 50°58' E 001°51'1 3.2
2017-Oct-12 03:30N 50°58' E 001°49'918.1
2017-Oct-12 03:00N 51°00' E 001°35'817.1
2017-Oct-12 02:30N 51°06' E 001°24'3 4.7
2017-Oct-12 01:52N 51°07' E 001°20'0 0.0
2017-Oct-12 01:11N 51°07' E 001°20'0 0.9
2017-Oct-12 01:00N 51°07' E 001°20'816.5
2017-Oct-12 00:31N 51°04' E 001°32'816.4
2017-Oct-12 00:00N 50°59' E 001°43'510.5
2017-Oct-11 23:30N 50°58' E 001°51'0 0.0
2017-Oct-11 23:00N 50°58' E 001°51'611.4
2017-Oct-11 22:30N 50°58' E 001°42'816.5
2017-Oct-11 22:00N 51°02' E 001°31'917.0
2017-Oct-11 21:30N 51°07' E 001°20'0 0.1
2017-Oct-11 20:41N 51°07' E 001°20'0 0.7
2017-Oct-11 20:27N 51°07' E 001°20'3 7.8
2017-Oct-11 20:01N 51°07' E 001°26'815.4
2017-Oct-11 19:30N 51°03' E 001°36'917.1
2017-Oct-11 19:00N 50°58' E 001°47'2 4.6
2017-Oct-11 18:30N 50°58' E 001°51'0 0.1
2017-Oct-11 18:00N 50°58' E 001°51'714.9
2017-Oct-11 17:31N 50°59' E 001°39'918.6
2017-Oct-11 17:00N 51°04' E 001°27'17 1.0
2017-Oct-11 00:00N 50°58' E 001°52'0 0.0
2017-Oct-10 23:30N 50°58' E 001°52'1 1.1
2017-Oct-10 23:00N 50°58' E 001°51'815.2
2017-Oct-10 22:31N 50°60' E 001°39'917.8
2017-Oct-10 22:01N 51°04' E 001°27'5 4.0
2017-Oct-10 20:41N 51°07' E 001°20'0 1.1
2017-Oct-10 20:30N 51°07' E 001°20'917.3
2017-Oct-10 20:00N 51°04' E 001°33'917.9
2017-Oct-10 19:30N 50°58' E 001°44'4 8.6
2017-Oct-10 19:00N 50°58' E 001°51'0 0.1
2017-Oct-10 18:30N 50°58' E 001°51'713.2
2017-Oct-10 18:00N 50°58' E 001°40'918.0
2017-Oct-10 17:30N 51°03' E 001°29'7 7.2
2017-Oct-10 16:31N 51°07' E 001°20'0 0.7
2017-Oct-10 16:27N 51°07' E 001°20'2 3.9
2017-Oct-10 16:00N 51°07' E 001°23'2 3.5
2017-Oct-10 15:30N 51°07' E 001°25'816.3
2017-Oct-10 15:00N 51°02' E 001°37'1010.0
2017-Oct-10 14:00N 50°58' E 001°51'0 0.0
2017-Oct-10 13:26N 50°58' E 001°51'613.4
2017-Oct-10 13:00N 50°58' E 001°42'918.3
2017-Oct-10 12:29N 51°03' E 001°29'7 8.4
2017-Oct-10 11:39N 51°07' E 001°20'0 0.0
2017-Oct-10 11:28N 51°07' E 001°20'0 0.8
2017-Oct-10 11:00N 51°07' E 001°21'917.9
2017-Oct-10 10:31N 51°03' E 001°33'918.5
2017-Oct-10 10:01N 50°58' E 001°45'4 7.7
2017-Oct-10 09:30N 50°58' E 001°51'0 0.0
2017-Oct-10 09:00N 50°58' E 001°51'4 7.5
2017-Oct-10 08:30N 50°58' E 001°45'816.0
2017-Oct-10 08:00N 51°01' E 001°34'917.9
2017-Oct-10 07:30N 51°07' E 001°22'2 1.4
2017-Oct-10 06:25N 51°07' E 001°20'410.5
2017-Oct-10 06:01N 51°06' E 001°27'816.3
2017-Oct-10 05:31N 51°02' E 001°37'815.3
2017-Oct-10 05:00N 50°58' E 001°48'2 3.5
2017-Oct-10 04:30N 50°58' E 001°51'0 0.0
2017-Oct-10 04:00N 50°58' E 001°51'2 4.4
2017-Oct-10 03:31N 50°58' E 001°48'918.0
2017-Oct-10 03:01N 50°60' E 001°34'815.7
2017-Oct-10 02:30N 51°05' E 001°25'4 5.2
2017-Oct-10 01:49N 51°07' E 001°20'0 0.0
2017-Oct-10 01:03N 51°07' E 001°20'0 0.0
2017-Oct-10 00:59N 51°07' E 001°20'510.7
2017-Oct-10 00:31N 51°06' E 001°28'918.2
2017-Oct-10 00:01N 50°59' E 001°38'816.0
2017-Oct-09 23:30N 50°58' E 001°51'0 0.4
2017-Oct-09 23:00N 50°58' E 001°51'1 1.3
2017-Oct-09 22:30N 50°58' E 001°50'816.0
2017-Oct-09 22:00N 50°58' E 001°37'815.9
2017-Oct-09 21:30N 51°03' E 001°27'6 5.4
2017-Oct-09 20:20N 51°07' E 001°20'2 6.8
2017-Oct-09 20:00N 51°07' E 001°24'918.2
2017-Oct-09 19:30N 51°03' E 001°36'917.7
2017-Oct-09 19:00N 50°58' E 001°49'2 3.1
2017-Oct-09 18:31N 50°58' E 001°51'0 0.1
2017-Oct-09 18:00N 50°58' E 001°51'714.9
2017-Oct-09 17:30N 50°59' E 001°39'918.5
2017-Oct-09 17:01N 51°04' E 001°27'5 7.3
2017-Oct-09 16:16N 51°07' E 001°20'0 0.0
2017-Oct-09 15:52N 51°07' E 001°20'2 6.5
2017-Oct-09 15:31N 51°07' E 001°24'816.7
2017-Oct-09 15:01N 51°04' E 001°36'816.9
2017-Oct-09 14:31N 50°58' E 001°46'3 3.1
2017-Oct-09 13:30N 50°58' E 001°51'4 7.8
2017-Oct-09 13:00N 50°58' E 001°45'1019.3
2017-Oct-09 12:31N 51°03' E 001°32'816.6
2017-Oct-09 12:00N 51°07' E 001°20'0 0.2
2017-Oct-09 11:03N 51°07' E 001°20'0 0.6
2017-Oct-09 11:00N 51°07' E 001°20'713.3
2017-Oct-09 10:31N 51°05' E 001°30'1019.0
2017-Oct-09 10:00N 50°59' E 001°42'611.5
2017-Oct-09 09:30N 50°58' E 001°51'0 0.0
2017-Oct-09 09:00N 50°58' E 001°51'4 8.2
2017-Oct-09 08:30N 50°58' E 001°45'917.3
2017-Oct-09 08:00N 51°02' E 001°32'816.6
2017-Oct-09 07:31N 51°07' E 001°22'1 1.5
2017-Oct-09 06:41N 51°07' E 001°20'0 0.6
2017-Oct-09 06:29N 51°07' E 001°20'715.4
2017-Oct-09 06:01N 51°04' E 001°31'918.5
2017-Oct-09 05:31N 50°59' E 001°43'611.2
2017-Oct-09 05:00N 50°58' E 001°52'0 0.0
2017-Oct-09 04:30N 50°58' E 001°52'0 0.4
2017-Oct-09 04:00N 50°58' E 001°51'815.4
2017-Oct-09 03:30N 50°59' E 001°39'919.1
2017-Oct-09 03:01N 51°04' E 001°26'5 9.7
2017-Oct-09 02:29N 51°07' E 001°20'0 0.0
2017-Oct-09 01:57N 51°07' E 001°20'3 6.5
2017-Oct-09 01:30N 51°07' E 001°25'816.5
2017-Oct-09 01:00N 51°03' E 001°36'816.4
2017-Oct-09 00:30N 50°58' E 001°46'3 6.7
2017-Oct-09 00:00N 50°58' E 001°52'0 0.0
2017-Oct-08 23:30N 50°58' E 001°52'0 0.0
2017-Oct-08 23:00N 50°58' E 001°52'0 0.1
2017-Oct-08 22:30N 50°58' E 001°52'713.7
2017-Oct-08 22:00N 50°58' E 001°41'918.0
2017-Oct-08 21:31N 51°03' E 001°29'711.7
2017-Oct-08 20:55N 51°07' E 001°20'0 0.0
2017-Oct-08 20:20N 51°07' E 001°20'1 3.4
2017-Oct-08 20:00N 51°07' E 001°22'918.8
2017-Oct-08 19:30N 51°03' E 001°35'918.1
2017-Oct-08 19:01N 50°58' E 001°47'2 4.9
2017-Oct-08 18:30N 50°58' E 001°51'0 0.0
2017-Oct-08 18:00N 50°58' E 001°51'4 8.5
2017-Oct-08 17:30N 50°58' E 001°44'917.0
2017-Oct-08 17:00N 50°59' E 001°31'1018.9
2017-Oct-08 16:30N 51°07' E 001°22'1 1.4
2017-Oct-08 15:44N 51°07' E 001°20'0 2.1
2017-Oct-08 15:30N 51°07' E 001°21'816.7
2017-Oct-08 15:01N 51°06' E 001°34'918.3
2017-Oct-08 14:30N 50°59' E 001°44'5 8.9
2017-Oct-08 13:58N 50°58' E 001°51'0 0.0
2017-Oct-08 13:26N 50°58' E 001°51'3 7.2
2017-Oct-08 13:00N 50°58' E 001°46'1019.6
2017-Oct-08 12:29N 51°03' E 001°32'917.3
2017-Oct-08 11:59N 51°07' E 001°20'0 0.0
2017-Oct-08 11:21N 51°07' E 001°20'3 9.7
2017-Oct-08 11:01N 51°06' E 001°25'1019.2
2017-Oct-08 10:30N 51°01' E 001°38'917.3
2017-Oct-08 10:00N 50°58' E 001°51'0 0.4
2017-Oct-08 09:29N 50°58' E 001°51'4 7.8
2017-Oct-08 09:01N 50°58' E 001°45'815.8
2017-Oct-08 08:30N 50°59' E 001°33'919.0
2017-Oct-08 08:01N 51°06' E 001°23'2 3.1
2017-Oct-08 07:15N 51°07' E 001°20'0 0.0
2017-Oct-08 06:48N 51°07' E 001°20'0 0.0
2017-Oct-08 06:02N 51°07' E 001°20'0 0.0
2017-Oct-08 05:58N 51°07' E 001°20'0 0.0
2017-Oct-08 05:18N 51°07' E 001°20'0 0.0
2017-Oct-08 04:47N 51°07' E 001°20'0 0.0
2017-Oct-08 04:28N 51°07' E 001°20'0 0.0
2017-Oct-07 23:36N 51°07' E 001°20'0 0.0
2017-Oct-07 23:30N 51°07' E 001°20'0 0.0
2017-Oct-07 21:25N 51°07' E 001°20'0 0.0
2017-Oct-07 20:58N 51°07' E 001°20'0 0.3
2017-Oct-07 20:30N 51°07' E 001°20'715.5
2017-Oct-07 20:01N 51°04' E 001°31'917.8
2017-Oct-07 19:31N 50°58' E 001°42'611.7
2017-Oct-07 19:00N 50°58' E 001°51'0 0.0
2017-Oct-07 18:30N 50°58' E 001°51'3 6.3
2017-Oct-07 18:00N 50°58' E 001°46'917.2
2017-Oct-07 17:30N 51°02' E 001°34'917.9
2017-Oct-07 17:00N 51°07' E 001°22'1 2.2
2017-Oct-07 16:20N 51°07' E 001°20'2 5.2
2017-Oct-07 16:00N 51°07' E 001°23'815.1
2017-Oct-07 15:30N 51°04' E 001°33'917.4
2017-Oct-07 15:00N 50°58' E 001°44'4 8.2
2017-Oct-07 14:30N 50°58' E 001°51'0 0.0
2017-Oct-07 14:00N 50°58' E 001°51'3 6.4
2017-Oct-07 13:30N 50°58' E 001°46'918.4
2017-Oct-07 13:00N 51°02' E 001°32'9 6.8
2017-Oct-07 11:37N 51°07' E 001°20'0 1.0
2017-Oct-07 11:29N 51°07' E 001°20'5 9.6
2017-Oct-07 11:00N 51°06' E 001°27'917.2
2017-Oct-07 10:30N 51°01' E 001°38'815.5
2017-Oct-07 10:00N 50°58' E 001°50'1 1.7
2017-Oct-07 09:30N 50°58' E 001°51'0 0.0
2017-Oct-07 09:00N 50°58' E 001°51'3 5.7
2017-Oct-07 08:30N 50°58' E 001°47'816.4
2017-Oct-07 08:00N 51°01' E 001°34'918.0
2017-Oct-07 07:31N 51°06' E 001°23'2 2.5
2017-Oct-07 06:40N 51°07' E 001°20'0 0.0
2017-Oct-07 06:29N 51°07' E 001°20'  

Dump ship's entire track history